sensor_id;sensor_type;location;lat;lon;timestamp;temperature;humidity
30037;DHT22;36325;51.512;-0.382;2023-03-21T00:01:53;10.30;99.90
30037;DHT22;36325;51.512;-0.382;2023-03-21T00:04:23;10.30;99.90
30037;DHT22;36325;51.512;-0.382;2023-03-21T00:06:51;10.30;99.90
30037;DHT22;36325;51.512;-0.382;2023-03-21T00:09:19;10.30;99.90
30037;DHT22;36325;51.512;-0.382;2023-03-21T00:11:47;10.30;99.90
30037;DHT22;36325;51.512;-0.382;2023-03-21T00:14:14;10.30;99.90
30037;DHT22;36325;51.512;-0.382;2023-03-21T00:16:46;10.30;99.90
30037;DHT22;36325;51.512;-0.382;2023-03-21T00:19:17;10.30;99.90
30037;DHT22;36325;51.512;-0.382;2023-03-21T00:21:46;10.30;99.90
30037;DHT22;36325;51.512;-0.382;2023-03-21T00:24:33;10.30;99.90
30037;DHT22;36325;51.512;-0.382;2023-03-21T00:27:01;10.30;99.90
30037;DHT22;36325;51.512;-0.382;2023-03-21T00:32:18;10.30;99.90
30037;DHT22;36325;51.512;-0.382;2023-03-21T00:34:47;10.30;99.90
30037;DHT22;36325;51.512;-0.382;2023-03-21T00:37:32;10.30;99.90
30037;DHT22;36325;51.512;-0.382;2023-03-21T00:39:59;10.30;99.90
30037;DHT22;36325;51.512;-0.382;2023-03-21T00:45:57;10.30;99.90
30037;DHT22;36325;51.512;-0.382;2023-03-21T00:48:25;10.30;99.90
30037;DHT22;36325;51.512;-0.382;2023-03-21T00:50:54;10.30;99.90
30037;DHT22;36325;51.512;-0.382;2023-03-21T00:53:23;10.30;99.90
30037;DHT22;36325;51.512;-0.382;2023-03-21T01:03:14;10.30;99.90
30037;DHT22;36325;51.512;-0.382;2023-03-21T01:05:51;10.30;99.90
30037;DHT22;36325;51.512;-0.382;2023-03-21T01:08:34;10.30;99.90
30037;DHT22;36325;51.512;-0.382;2023-03-21T01:11:19;10.30;99.90
30037;DHT22;36325;51.512;-0.382;2023-03-21T01:13:47;10.30;99.90
30037;DHT22;36325;51.512;-0.382;2023-03-21T01:16:23;10.30;99.90
30037;DHT22;36325;51.512;-0.382;2023-03-21T01:18:51;10.30;99.90
30037;DHT22;36325;51.512;-0.382;2023-03-21T01:21:19;10.30;99.90
30037;DHT22;36325;51.512;-0.382;2023-03-21T01:23:47;10.30;99.90
30037;DHT22;36325;51.512;-0.382;2023-03-21T01:26:14;10.30;99.90
30037;DHT22;36325;51.512;-0.382;2023-03-21T01:28:43;10.30;99.90
30037;DHT22;36325;51.512;-0.382;2023-03-21T01:31:13;10.30;99.90
30037;DHT22;36325;51.512;-0.382;2023-03-21T01:33:41;10.30;99.90
30037;DHT22;36325;51.512;-0.382;2023-03-21T01:36:17;10.40;99.90
30037;DHT22;36325;51.512;-0.382;2023-03-21T01:38:50;10.30;99.90
30037;DHT22;36325;51.512;-0.382;2023-03-21T01:41:25;10.30;99.90
30037;DHT22;36325;51.512;-0.382;2023-03-21T01:44:14;10.30;99.90
30037;DHT22;36325;51.512;-0.382;2023-03-21T01:46:50;10.30;99.90
30037;DHT22;36325;51.512;-0.382;2023-03-21T01:50:03;10.30;99.90
30037;DHT22;36325;51.512;-0.382;2023-03-21T01:52:53;10.30;99.90
30037;DHT22;36325;51.512;-0.382;2023-03-21T01:55:26;10.30;99.90
30037;DHT22;36325;51.512;-0.382;2023-03-21T01:58:20;10.30;99.90
30037;DHT22;36325;51.512;-0.382;2023-03-21T02:01:09;10.30;99.90
30037;DHT22;36325;51.512;-0.382;2023-03-21T02:03:46;10.30;99.90
30037;DHT22;36325;51.512;-0.382;2023-03-21T02:09:29;10.30;99.90
30037;DHT22;36325;51.512;-0.382;2023-03-21T02:11:59;10.30;99.90
30037;DHT22;36325;51.512;-0.382;2023-03-21T02:14:31;10.30;99.90
30037;DHT22;36325;51.512;-0.382;2023-03-21T02:28:58;10.30;99.90
30037;DHT22;36325;51.512;-0.382;2023-03-21T02:32:06;10.30;99.90
30037;DHT22;36325;51.512;-0.382;2023-03-21T02:38:13;10.30;99.90
30037;DHT22;36325;51.512;-0.382;2023-03-21T02:46:25;10.20;99.90
30037;DHT22;36325;51.512;-0.382;2023-03-21T02:49:21;10.20;99.90
30037;DHT22;36325;51.512;-0.382;2023-03-21T02:51:50;10.20;99.90
30037;DHT22;36325;51.512;-0.382;2023-03-21T02:54:20;10.10;99.90
30037;DHT22;36325;51.512;-0.382;2023-03-21T02:57:05;10.10;99.90
30037;DHT22;36325;51.512;-0.382;2023-03-21T02:59:34;10.10;99.90
30037;DHT22;36325;51.512;-0.382;2023-03-21T03:02:16;10.10;99.90
30037;DHT22;36325;51.512;-0.382;2023-03-21T03:04:46;10.10;99.90
30037;DHT22;36325;51.512;-0.382;2023-03-21T03:13:14;10.00;99.90
30037;DHT22;36325;51.512;-0.382;2023-03-21T03:19:31;10.00;99.90
30037;DHT22;36325;51.512;-0.382;2023-03-21T03:22:16;10.00;99.90
30037;DHT22;36325;51.512;-0.382;2023-03-21T03:27:30;10.00;99.90
30037;DHT22;36325;51.512;-0.382;2023-03-21T03:30:04;10.00;99.90
30037;DHT22;36325;51.512;-0.382;2023-03-21T03:32:47;10.00;99.90
30037;DHT22;36325;51.512;-0.382;2023-03-21T03:35:17;10.00;99.90
30037;DHT22;36325;51.512;-0.382;2023-03-21T03:37:50;10.00;99.90
30037;DHT22;36325;51.512;-0.382;2023-03-21T03:40:29;10.00;99.90
30037;DHT22;36325;51.512;-0.382;2023-03-21T03:43:17;10.00;99.90
30037;DHT22;36325;51.512;-0.382;2023-03-21T03:45:49;10.00;99.90
30037;DHT22;36325;51.512;-0.382;2023-03-21T03:48:32;10.00;99.90
30037;DHT22;36325;51.512;-0.382;2023-03-21T03:51:10;10.00;99.90
30037;DHT22;36325;51.512;-0.382;2023-03-21T03:54:03;10.00;99.90
30037;DHT22;36325;51.512;-0.382;2023-03-21T03:56:33;10.00;99.90
30037;DHT22;36325;51.512;-0.382;2023-03-21T03:59:03;10.00;99.90
30037;DHT22;36325;51.512;-0.382;2023-03-21T04:01:56;10.00;99.90
30037;DHT22;36325;51.512;-0.382;2023-03-21T04:04:24;10.00;99.90
30037;DHT22;36325;51.512;-0.382;2023-03-21T04:06:57;10.00;99.90
30037;DHT22;36325;51.512;-0.382;2023-03-21T04:09:25;10.00;99.90
30037;DHT22;36325;51.512;-0.382;2023-03-21T04:12:11;9.90;99.90
30037;DHT22;36325;51.512;-0.382;2023-03-21T04:14:41;9.90;99.90
30037;DHT22;36325;51.512;-0.382;2023-03-21T04:17:15;9.90;99.90
30037;DHT22;36325;51.512;-0.382;2023-03-21T04:24:42;9.90;99.90
30037;DHT22;36325;51.512;-0.382;2023-03-21T04:27:09;9.90;99.90
30037;DHT22;36325;51.512;-0.382;2023-03-21T04:29:41;9.90;99.90
30037;DHT22;36325;51.512;-0.382;2023-03-21T04:32:22;9.80;99.90
30037;DHT22;36325;51.512;-0.382;2023-03-21T04:35:00;9.80;99.90
30037;DHT22;36325;51.512;-0.382;2023-03-21T04:37:27;9.80;99.90
30037;DHT22;36325;51.512;-0.382;2023-03-21T04:39:55;9.80;99.90
30037;DHT22;36325;51.512;-0.382;2023-03-21T04:42:22;9.80;99.90
30037;DHT22;36325;51.512;-0.382;2023-03-21T04:44:49;9.80;99.90
30037;DHT22;36325;51.512;-0.382;2023-03-21T04:47:17;9.70;99.90
30037;DHT22;36325;51.512;-0.382;2023-03-21T04:49:46;9.70;99.90
30037;DHT22;36325;51.512;-0.382;2023-03-21T04:52:16;13.30;99.90
30037;DHT22;36325;51.512;-0.382;2023-03-21T04:54:43;9.60;99.90
30037;DHT22;36325;51.512;-0.382;2023-03-21T04:57:11;9.60;99.90
30037;DHT22;36325;51.512;-0.382;2023-03-21T04:59:39;9.60;99.90
30037;DHT22;36325;51.512;-0.382;2023-03-21T05:02:07;9.60;99.90
30037;DHT22;36325;51.512;-0.382;2023-03-21T05:07:02;9.50;99.90
30037;DHT22;36325;51.512;-0.382;2023-03-21T05:11:56;9.50;99.90
30037;DHT22;36325;51.512;-0.382;2023-03-21T05:14:26;9.50;99.90
30037;DHT22;36325;51.512;-0.382;2023-03-21T05:19:26;9.40;99.90
30037;DHT22;36325;51.512;-0.382;2023-03-21T05:22:09;9.50;99.90
30037;DHT22;36325;51.512;-0.382;2023-03-21T05:24:38;9.40;99.90
30037;DHT22;36325;51.512;-0.382;2023-03-21T05:32:34;8.30;99.90
30037;DHT22;36325;51.512;-0.382;2023-03-21T05:35:02;9.40;99.90
30037;DHT22;36325;51.512;-0.382;2023-03-21T05:37:30;9.40;99.90
30037;DHT22;36325;51.512;-0.382;2023-03-21T05:39:57;9.40;99.90
30037;DHT22;36325;51.512;-0.382;2023-03-21T05:44:57;9.40;99.90
30037;DHT22;36325;51.512;-0.382;2023-03-21T05:47:28;9.40;99.90
30037;DHT22;36325;51.512;-0.382;2023-03-21T05:49:58;9.40;99.90
30037;DHT22;36325;51.512;-0.382;2023-03-21T05:52:26;9.40;99.90
30037;DHT22;36325;51.512;-0.382;2023-03-21T05:54:57;9.40;99.90
30037;DHT22;36325;51.512;-0.382;2023-03-21T05:57:25;9.40;99.90
30037;DHT22;36325;51.512;-0.382;2023-03-21T06:02:41;9.40;99.90
30037;DHT22;36325;51.512;-0.382;2023-03-21T06:05:26;9.40;99.90
30037;DHT22;36325;51.512;-0.382;2023-03-21T06:07:54;9.40;99.90
30037;DHT22;36325;51.512;-0.382;2023-03-21T06:10:21;9.40;99.90
30037;DHT22;36325;51.512;-0.382;2023-03-21T06:12:49;9.40;99.90
30037;DHT22;36325;51.512;-0.382;2023-03-21T06:18:01;9.40;99.90
30037;DHT22;36325;51.512;-0.382;2023-03-21T06:20:29;9.50;99.90
30037;DHT22;36325;51.512;-0.382;2023-03-21T06:23:03;9.50;99.90
30037;DHT22;36325;51.512;-0.382;2023-03-21T06:25:31;9.50;99.90
30037;DHT22;36325;51.512;-0.382;2023-03-21T06:27:58;9.50;99.90
30037;DHT22;36325;51.512;-0.382;2023-03-21T06:30:26;9.50;99.90
30037;DHT22;36325;51.512;-0.382;2023-03-21T06:35:31;9.60;99.90
30037;DHT22;36325;51.512;-0.382;2023-03-21T06:37:59;9.60;99.90
30037;DHT22;36325;51.512;-0.382;2023-03-21T06:40:30;9.70;99.90
30037;DHT22;36325;51.512;-0.382;2023-03-21T06:42:58;9.70;99.90
30037;DHT22;36325;51.512;-0.382;2023-03-21T06:45:25;9.70;99.90
30037;DHT22;36325;51.512;-0.382;2023-03-21T06:47:53;9.70;99.90
30037;DHT22;36325;51.512;-0.382;2023-03-21T06:50:41;9.70;99.90
30037;DHT22;36325;51.512;-0.382;2023-03-21T06:53:08;9.70;99.90
30037;DHT22;36325;51.512;-0.382;2023-03-21T06:55:56;9.70;99.90
30037;DHT22;36325;51.512;-0.382;2023-03-21T06:58:23;9.70;99.90
30037;DHT22;36325;51.512;-0.382;2023-03-21T07:03:19;9.70;99.90
30037;DHT22;36325;51.512;-0.382;2023-03-21T07:05:47;9.70;99.90
30037;DHT22;36325;51.512;-0.382;2023-03-21T07:08:15;9.80;99.90
30037;DHT22;36325;51.512;-0.382;2023-03-21T07:10:44;9.80;99.90
30037;DHT22;36325;51.512;-0.382;2023-03-21T07:13:15;9.80;99.90
30037;DHT22;36325;51.512;-0.382;2023-03-21T07:16:01;9.80;99.90
30037;DHT22;36325;51.512;-0.382;2023-03-21T07:20:57;9.80;99.90
30037;DHT22;36325;51.512;-0.382;2023-03-21T07:23:25;9.80;99.90
30037;DHT22;36325;51.512;-0.382;2023-03-21T07:30:53;10.00;99.90
30037;DHT22;36325;51.512;-0.382;2023-03-21T07:33:22;9.90;99.90
30037;DHT22;36325;51.512;-0.382;2023-03-21T07:35:54;10.00;99.90
30037;DHT22;36325;51.512;-0.382;2023-03-21T07:38:25;10.00;99.90
30037;DHT22;36325;51.512;-0.382;2023-03-21T07:40:53;10.10;99.90
30037;DHT22;36325;51.512;-0.382;2023-03-21T07:45:55;10.10;99.90
30037;DHT22;36325;51.512;-0.382;2023-03-21T07:48:23;10.00;99.90
30037;DHT22;36325;51.512;-0.382;2023-03-21T07:50:50;10.10;99.90
30037;DHT22;36325;51.512;-0.382;2023-03-21T07:53:19;10.10;99.90
30037;DHT22;36325;51.512;-0.382;2023-03-21T07:55:51;10.10;99.90
30037;DHT22;36325;51.512;-0.382;2023-03-21T07:58:20;10.10;99.90
30037;DHT22;36325;51.512;-0.382;2023-03-21T08:05:44;10.10;99.90
30037;DHT22;36325;51.512;-0.382;2023-03-21T08:08:12;10.10;99.90
30037;DHT22;36325;51.512;-0.382;2023-03-21T08:10:41;10.10;99.90
30037;DHT22;36325;51.512;-0.382;2023-03-21T08:13:09;10.20;99.90
30037;DHT22;36325;51.512;-0.382;2023-03-21T08:15:36;10.20;99.90
30037;DHT22;36325;51.512;-0.382;2023-03-21T08:18:08;10.30;99.90
30037;DHT22;36325;51.512;-0.382;2023-03-21T08:20:38;10.30;99.90
30037;DHT22;36325;51.512;-0.382;2023-03-21T08:28:02;10.50;99.90
30037;DHT22;36325;51.512;-0.382;2023-03-21T08:30:29;10.60;99.90
30037;DHT22;36325;51.512;-0.382;2023-03-21T08:32:58;10.60;99.90
30037;DHT22;36325;51.512;-0.382;2023-03-21T08:35:30;10.80;99.90
30037;DHT22;36325;51.512;-0.382;2023-03-21T08:37:58;10.80;99.90
30037;DHT22;36325;51.512;-0.382;2023-03-21T08:42:53;11.00;99.90
30037;DHT22;36325;51.512;-0.382;2023-03-21T08:45:21;11.00;99.90
30037;DHT22;36325;51.512;-0.382;2023-03-21T08:47:49;11.20;99.90
30037;DHT22;36325;51.512;-0.382;2023-03-21T08:50:19;11.60;99.90
30037;DHT22;36325;51.512;-0.382;2023-03-21T08:52:47;12.00;99.90
30037;DHT22;36325;51.512;-0.382;2023-03-21T08:55:16;12.00;99.90
30037;DHT22;36325;51.512;-0.382;2023-03-21T08:57:44;12.10;99.90
30037;DHT22;36325;51.512;-0.382;2023-03-21T09:00:14;14.80;99.90
30037;DHT22;36325;51.512;-0.382;2023-03-21T09:02:44;12.20;99.90
30037;DHT22;36325;51.512;-0.382;2023-03-21T09:05:12;12.60;99.90
30037;DHT22;36325;51.512;-0.382;2023-03-21T09:07:40;13.00;99.90
30037;DHT22;36325;51.512;-0.382;2023-03-21T09:10:11;13.40;99.90
30037;DHT22;36325;51.512;-0.382;2023-03-21T09:12:53;13.30;99.90
30037;DHT22;36325;51.512;-0.382;2023-03-21T09:15:22;13.00;99.90
30037;DHT22;36325;51.512;-0.382;2023-03-21T09:17:51;13.00;99.90
30037;DHT22;36325;51.512;-0.382;2023-03-21T09:20:25;12.90;99.90
30037;DHT22;36325;51.512;-0.382;2023-03-21T09:22:57;12.70;99.90
30037;DHT22;36325;51.512;-0.382;2023-03-21T09:25:25;12.40;99.90
30037;DHT22;36325;51.512;-0.382;2023-03-21T09:27:58;12.40;99.90
30037;DHT22;36325;51.512;-0.382;2023-03-21T09:30:26;12.20;99.90
30037;DHT22;36325;51.512;-0.382;2023-03-21T09:32:54;12.20;99.90
30037;DHT22;36325;51.512;-0.382;2023-03-21T09:35:22;12.30;99.90
30037;DHT22;36325;51.512;-0.382;2023-03-21T09:46:48;12.40;99.90
30037;DHT22;36325;51.512;-0.382;2023-03-21T09:49:24;12.40;99.90
30037;DHT22;36325;51.512;-0.382;2023-03-21T09:52:04;12.40;99.90
30037;DHT22;36325;51.512;-0.382;2023-03-21T09:54:39;12.30;99.90
30037;DHT22;36325;51.512;-0.382;2023-03-21T09:57:30;12.30;99.90
30037;DHT22;36325;51.512;-0.382;2023-03-21T10:00:04;12.20;99.90
30037;DHT22;36325;51.512;-0.382;2023-03-21T10:02:48;12.30;99.90
30037;DHT22;36325;51.512;-0.382;2023-03-21T10:05:26;12.40;99.90
30037;DHT22;36325;51.512;-0.382;2023-03-21T10:08:19;12.50;99.90
30037;DHT22;36325;51.512;-0.382;2023-03-21T10:10:54;12.70;99.90
30037;DHT22;36325;51.512;-0.382;2023-03-21T10:13:27;12.60;99.90
30037;DHT22;36325;51.512;-0.382;2023-03-21T10:15:56;12.80;99.90
30037;DHT22;36325;51.512;-0.382;2023-03-21T10:18:26;12.80;99.90
30037;DHT22;36325;51.512;-0.382;2023-03-21T10:20:56;12.80;99.90
30037;DHT22;36325;51.512;-0.382;2023-03-21T10:23:27;12.90;99.90
30037;DHT22;36325;51.512;-0.382;2023-03-21T10:26:01;12.90;99.90
30037;DHT22;36325;51.512;-0.382;2023-03-21T10:28:32;12.90;99.90
30037;DHT22;36325;51.512;-0.382;2023-03-21T10:31:18;13.00;99.90
30037;DHT22;36325;51.512;-0.382;2023-03-21T10:33:49;13.00;99.90
30037;DHT22;36325;51.512;-0.382;2023-03-21T10:36:21;13.20;99.90
30037;DHT22;36325;51.512;-0.382;2023-03-21T10:38:55;13.20;99.90
30037;DHT22;36325;51.512;-0.382;2023-03-21T10:41:23;13.20;99.90
30037;DHT22;36325;51.512;-0.382;2023-03-21T10:44:09;13.50;99.90
30037;DHT22;36325;51.512;-0.382;2023-03-21T10:46:57;13.60;99.90
30037;DHT22;36325;51.512;-0.382;2023-03-21T10:51:56;13.70;99.90
30037;DHT22;36325;51.512;-0.382;2023-03-21T10:54:31;13.80;99.90
30037;DHT22;36325;51.512;-0.382;2023-03-21T11:00:03;14.50;99.90
30037;DHT22;36325;51.512;-0.382;2023-03-21T11:02:47;14.40;99.90
30037;DHT22;36325;51.512;-0.382;2023-03-21T11:05:22;14.50;99.90
30037;DHT22;36325;51.512;-0.382;2023-03-21T11:08:10;14.40;99.90
30037;DHT22;36325;51.512;-0.382;2023-03-21T11:11:01;14.40;99.90
30037;DHT22;36325;51.512;-0.382;2023-03-21T11:13:56;14.30;99.90
30037;DHT22;36325;51.512;-0.382;2023-03-21T11:19:15;14.10;99.90
30037;DHT22;36325;51.512;-0.382;2023-03-21T11:21:42;14.10;99.90
30037;DHT22;36325;51.512;-0.382;2023-03-21T11:24:13;13.80;99.90
30037;DHT22;36325;51.512;-0.382;2023-03-21T11:26:44;13.80;99.90
30037;DHT22;36325;51.512;-0.382;2023-03-21T11:29:32;13.80;99.90
30037;DHT22;36325;51.512;-0.382;2023-03-21T11:32:25;13.90;99.90
30037;DHT22;36325;51.512;-0.382;2023-03-21T11:37:44;13.90;99.90
30037;DHT22;36325;51.512;-0.382;2023-03-21T11:45:32;14.00;99.90
30037;DHT22;36325;51.512;-0.382;2023-03-21T11:48:02;14.00;99.90
30037;DHT22;36325;51.512;-0.382;2023-03-21T11:50:38;14.10;99.90
30037;DHT22;36325;51.512;-0.382;2023-03-21T11:53:26;14.10;99.90
30037;DHT22;36325;51.512;-0.382;2023-03-21T12:21:04;14.70;99.90
30037;DHT22;36325;51.512;-0.382;2023-03-21T12:26:18;14.60;99.90
30037;DHT22;36325;51.512;-0.382;2023-03-21T12:29:01;14.60;99.90
30037;DHT22;36325;51.512;-0.382;2023-03-21T12:37:45;14.80;99.90
30037;DHT22;36325;51.512;-0.382;2023-03-21T12:43:18;15.30;99.90
30037;DHT22;36325;51.512;-0.382;2023-03-21T12:45:51;15.40;99.90
30037;DHT22;36325;51.512;-0.382;2023-03-21T12:48:52;17.00;99.90
30037;DHT22;36325;51.512;-0.382;2023-03-21T12:51:28;17.20;99.90
30037;DHT22;36325;51.512;-0.382;2023-03-21T12:54:11;17.30;99.90
30037;DHT22;36325;51.512;-0.382;2023-03-21T12:59:17;16.60;99.90
30037;DHT22;36325;51.512;-0.382;2023-03-21T13:01:50;15.70;99.90
30037;DHT22;36325;51.512;-0.382;2023-03-21T13:04:42;15.50;99.90
30037;DHT22;36325;51.512;-0.382;2023-03-21T13:07:16;15.30;99.90
30037;DHT22;36325;51.512;-0.382;2023-03-21T13:09:46;15.30;99.90
30037;DHT22;36325;51.512;-0.382;2023-03-21T13:12:38;15.10;99.90
30037;DHT22;36325;51.512;-0.382;2023-03-21T13:20:54;14.60;99.90
30037;DHT22;36325;51.512;-0.382;2023-03-21T13:23:24;13.10;99.90
30037;DHT22;36325;51.512;-0.382;2023-03-21T13:25:53;14.50;99.90
30037;DHT22;36325;51.512;-0.382;2023-03-21T13:28:27;14.50;99.90
30037;DHT22;36325;51.512;-0.382;2023-03-21T13:31:27;14.80;99.90
30037;DHT22;36325;51.512;-0.382;2023-03-21T13:36:30;15.00;99.90
30037;DHT22;36325;51.512;-0.382;2023-03-21T13:39:04;14.90;99.90
30037;DHT22;36325;51.512;-0.382;2023-03-21T13:41:41;14.90;99.90
30037;DHT22;36325;51.512;-0.382;2023-03-21T13:44:56;16.80;99.90
30037;DHT22;36325;51.512;-0.382;2023-03-21T13:47:39;17.00;99.90
30037;DHT22;36325;51.512;-0.382;2023-03-21T13:50:20;18.90;99.90
30037;DHT22;36325;51.512;-0.382;2023-03-21T13:53:10;18.80;99.90
30037;DHT22;36325;51.512;-0.382;2023-03-21T13:55:44;18.50;99.90
30037;DHT22;36325;51.512;-0.382;2023-03-21T13:58:23;17.50;99.90
30037;DHT22;36325;51.512;-0.382;2023-03-21T14:01:24;17.50;99.90
30037;DHT22;36325;51.512;-0.382;2023-03-21T14:06:47;16.70;99.90
30037;DHT22;36325;51.512;-0.382;2023-03-21T14:11:57;16.30;99.90
30037;DHT22;36325;51.512;-0.382;2023-03-21T14:14:40;16.50;99.90
30037;DHT22;36325;51.512;-0.382;2023-03-21T14:17:35;16.50;99.90
30037;DHT22;36325;51.512;-0.382;2023-03-21T14:20:12;16.50;99.90
30037;DHT22;36325;51.512;-0.382;2023-03-21T14:22:40;16.30;99.90
30037;DHT22;36325;51.512;-0.382;2023-03-21T14:25:13;16.20;99.90
30037;DHT22;36325;51.512;-0.382;2023-03-21T14:27:50;17.20;99.90
30037;DHT22;36325;51.512;-0.382;2023-03-21T14:30:25;17.40;99.90
30037;DHT22;36325;51.512;-0.382;2023-03-21T14:32:57;17.40;99.90
30037;DHT22;36325;51.512;-0.382;2023-03-21T14:35:28;16.80;99.90
30037;DHT22;36325;51.512;-0.382;2023-03-21T14:38:05;16.20;99.90
30037;DHT22;36325;51.512;-0.382;2023-03-21T14:40:35;17.70;99.90
30037;DHT22;36325;51.512;-0.382;2023-03-21T14:43:06;16.10;99.90
30037;DHT22;36325;51.512;-0.382;2023-03-21T14:45:35;16.00;99.90
30037;DHT22;36325;51.512;-0.382;2023-03-21T14:48:06;17.00;99.90
30037;DHT22;36325;51.512;-0.382;2023-03-21T14:50:54;17.00;99.90
30037;DHT22;36325;51.512;-0.382;2023-03-21T14:53:32;17.40;99.90
30037;DHT22;36325;51.512;-0.382;2023-03-21T14:56:09;18.80;99.90
30037;DHT22;36325;51.512;-0.382;2023-03-21T14:58:44;19.60;99.90
30037;DHT22;36325;51.512;-0.382;2023-03-21T15:01:26;19.90;99.90
30037;DHT22;36325;51.512;-0.382;2023-03-21T15:03:54;19.40;99.90
30037;DHT22;36325;51.512;-0.382;2023-03-21T15:06:21;18.20;99.90
30037;DHT22;36325;51.512;-0.382;2023-03-21T15:08:57;17.30;99.90
30037;DHT22;36325;51.512;-0.382;2023-03-21T15:14:00;17.00;99.90
30037;DHT22;36325;51.512;-0.382;2023-03-21T15:16:28;17.00;99.90
30037;DHT22;36325;51.512;-0.382;2023-03-21T15:18:57;17.60;99.90
30037;DHT22;36325;51.512;-0.382;2023-03-21T15:21:34;18.70;99.90
30037;DHT22;36325;51.512;-0.382;2023-03-21T15:24:21;19.50;99.90
30037;DHT22;36325;51.512;-0.382;2023-03-21T15:27:03;19.90;99.90
30037;DHT22;36325;51.512;-0.382;2023-03-21T15:29:33;19.50;99.90
30037;DHT22;36325;51.512;-0.382;2023-03-21T15:32:05;18.90;99.90
30037;DHT22;36325;51.512;-0.382;2023-03-21T15:34:33;19.60;99.90
30037;DHT22;36325;51.512;-0.382;2023-03-21T15:37:07;19.50;99.90
30037;DHT22;36325;51.512;-0.382;2023-03-21T15:39:35;19.00;99.90
30037;DHT22;36325;51.512;-0.382;2023-03-21T15:42:05;19.00;99.90
30037;DHT22;36325;51.512;-0.382;2023-03-21T15:44:48;19.20;99.90
30037;DHT22;36325;51.512;-0.382;2023-03-21T15:47:34;19.20;99.90
30037;DHT22;36325;51.512;-0.382;2023-03-21T15:50:07;18.90;99.90
30037;DHT22;36325;51.512;-0.382;2023-03-21T15:52:36;17.80;99.90
30037;DHT22;36325;51.512;-0.382;2023-03-21T15:55:16;17.60;99.90
30037;DHT22;36325;51.512;-0.382;2023-03-21T15:57:48;16.80;99.90
30037;DHT22;36325;51.512;-0.382;2023-03-21T16:02:47;16.20;99.90
30037;DHT22;36325;51.512;-0.382;2023-03-21T16:05:31;15.90;99.90
30037;DHT22;36325;51.512;-0.382;2023-03-21T16:08:19;15.90;99.90
30037;DHT22;36325;51.512;-0.382;2023-03-21T16:10:46;15.70;99.90
30037;DHT22;36325;51.512;-0.382;2023-03-21T16:13:15;15.50;99.90
30037;DHT22;36325;51.512;-0.382;2023-03-21T16:15:43;15.50;99.90
30037;DHT22;36325;51.512;-0.382;2023-03-21T16:18:13;16.40;99.90
30037;DHT22;36325;51.512;-0.382;2023-03-21T16:20:45;16.40;99.90
30037;DHT22;36325;51.512;-0.382;2023-03-21T16:23:13;16.40;99.90
30037;DHT22;36325;51.512;-0.382;2023-03-21T16:25:42;16.00;99.90
30037;DHT22;36325;51.512;-0.382;2023-03-21T16:28:15;15.60;99.90
30037;DHT22;36325;51.512;-0.382;2023-03-21T16:30:43;15.60;99.90
30037;DHT22;36325;51.512;-0.382;2023-03-21T16:33:11;14.80;99.90
30037;DHT22;36325;51.512;-0.382;2023-03-21T16:35:39;14.80;99.90
30037;DHT22;36325;51.512;-0.382;2023-03-21T16:38:06;14.80;99.90
30037;DHT22;36325;51.512;-0.382;2023-03-21T16:40:37;14.90;99.90
30037;DHT22;36325;51.512;-0.382;2023-03-21T16:43:06;15.00;99.90
30037;DHT22;36325;51.512;-0.382;2023-03-21T16:45:34;15.00;99.90
30037;DHT22;36325;51.512;-0.382;2023-03-21T16:48:02;15.00;99.90
30037;DHT22;36325;51.512;-0.382;2023-03-21T16:50:32;15.80;99.90
30037;DHT22;36325;51.512;-0.382;2023-03-21T16:53:02;15.80;99.90
30037;DHT22;36325;51.512;-0.382;2023-03-21T16:55:29;16.50;99.90
30037;DHT22;36325;51.512;-0.382;2023-03-21T16:58:00;16.50;99.90
30037;DHT22;36325;51.512;-0.382;2023-03-21T17:00:28;16.30;99.90
30037;DHT22;36325;51.512;-0.382;2023-03-21T17:02:59;16.20;99.90
30037;DHT22;36325;51.512;-0.382;2023-03-21T17:05:28;16.30;99.90
30037;DHT22;36325;51.512;-0.382;2023-03-21T17:07:59;16.10;99.90
30037;DHT22;36325;51.512;-0.382;2023-03-21T17:10:29;15.70;99.90
30037;DHT22;36325;51.512;-0.382;2023-03-21T17:15:25;14.80;99.90
30037;DHT22;36325;51.512;-0.382;2023-03-21T17:17:53;14.60;99.90
30037;DHT22;36325;51.512;-0.382;2023-03-21T17:20:28;14.60;99.90
30037;DHT22;36325;51.512;-0.382;2023-03-21T17:22:57;14.60;99.90
30037;DHT22;36325;51.512;-0.382;2023-03-21T17:27:53;14.90;99.90
30037;DHT22;36325;51.512;-0.382;2023-03-21T17:30:23;15.00;99.90
30037;DHT22;36325;51.512;-0.382;2023-03-21T17:32:52;14.90;99.90
30037;DHT22;36325;51.512;-0.382;2023-03-21T17:35:20;14.60;99.90
30037;DHT22;36325;51.512;-0.382;2023-03-21T17:37:48;14.30;99.90
30037;DHT22;36325;51.512;-0.382;2023-03-21T17:40:22;14.30;99.90
30037;DHT22;36325;51.512;-0.382;2023-03-21T17:42:50;14.20;99.90
30037;DHT22;36325;51.512;-0.382;2023-03-21T17:45:18;13.90;99.90
30037;DHT22;36325;51.512;-0.382;2023-03-21T17:47:45;13.90;99.90
30037;DHT22;36325;51.512;-0.382;2023-03-21T17:50:18;13.70;99.90
30037;DHT22;36325;51.512;-0.382;2023-03-21T17:52:46;13.60;99.90
30037;DHT22;36325;51.512;-0.382;2023-03-21T17:55:17;13.40;99.90
30037;DHT22;36325;51.512;-0.382;2023-03-21T17:57:48;13.10;99.90
30037;DHT22;36325;51.512;-0.382;2023-03-21T18:00:18;12.90;99.90
30037;DHT22;36325;51.512;-0.382;2023-03-21T18:02:47;13.00;99.90
30037;DHT22;36325;51.512;-0.382;2023-03-21T18:05:15;12.90;99.90
30037;DHT22;36325;51.512;-0.382;2023-03-21T18:07:44;12.70;99.90
30037;DHT22;36325;51.512;-0.382;2023-03-21T18:25:45;12.50;99.90
30037;DHT22;36325;51.512;-0.382;2023-03-21T18:33:39;12.40;99.90
30037;DHT22;36325;51.512;-0.382;2023-03-21T18:36:08;12.30;99.90
30037;DHT22;36325;51.512;-0.382;2023-03-21T18:41:05;12.30;99.90
30037;DHT22;36325;51.512;-0.382;2023-03-21T18:43:34;12.20;99.90
30037;DHT22;36325;51.512;-0.382;2023-03-21T18:46:22;12.00;99.90
30037;DHT22;36325;51.512;-0.382;2023-03-21T18:48:49;11.90;99.90
30037;DHT22;36325;51.512;-0.382;2023-03-21T18:51:17;11.90;99.90
30037;DHT22;36325;51.512;-0.382;2023-03-21T18:56:14;11.70;99.90
30037;DHT22;36325;51.512;-0.382;2023-03-21T18:59:05;11.60;99.90
30037;DHT22;36325;51.512;-0.382;2023-03-21T19:01:33;11.60;99.90
30037;DHT22;36325;51.512;-0.382;2023-03-21T19:09:16;11.40;99.90
30037;DHT22;36325;51.512;-0.382;2023-03-21T19:14:14;11.30;99.90
30037;DHT22;36325;51.512;-0.382;2023-03-21T19:19:29;11.20;99.90
30037;DHT22;36325;51.512;-0.382;2023-03-21T19:21:57;11.20;99.90
30037;DHT22;36325;51.512;-0.382;2023-03-21T19:24:25;11.20;99.90
30037;DHT22;36325;51.512;-0.382;2023-03-21T19:26:54;11.20;99.90
30037;DHT22;36325;51.512;-0.382;2023-03-21T19:34:19;11.20;99.90
30037;DHT22;36325;51.512;-0.382;2023-03-21T19:36:46;11.30;99.90
30037;DHT22;36325;51.512;-0.382;2023-03-21T19:39:20;11.30;99.90
30037;DHT22;36325;51.512;-0.382;2023-03-21T19:41:50;11.30;99.90
30037;DHT22;36325;51.512;-0.382;2023-03-21T19:46:55;11.30;99.90
30037;DHT22;36325;51.512;-0.382;2023-03-21T19:54:44;11.20;99.90
30037;DHT22;36325;51.512;-0.382;2023-03-21T19:59:39;11.10;99.90